createdAt,value
2024-05-09T00:01:13.155Z,102181.50
2024-05-09T00:03:20.248Z,102177.97
2024-05-09T00:05:26.923Z,102180.66
2024-05-09T00:07:33.119Z,102189.50
2024-05-09T00:09:39.357Z,102185.88
2024-05-09T00:11:48.322Z,102182.47
2024-05-09T00:13:54.309Z,102193.13
2024-05-09T00:16:00.430Z,102185.97
2024-05-09T00:18:07.962Z,102186.06
2024-05-09T00:20:20.467Z,102185.13
2024-05-09T00:22:30.482Z,102183.31
2024-05-09T00:24:36.579Z,102192.16
2024-05-09T00:26:39.892Z,102197.50
2024-05-09T00:28:48.555Z,102199.22
2024-05-09T00:30:54.710Z,102200.09
2024-05-09T00:33:00.928Z,102192.16
2024-05-09T00:35:06.925Z,102194.81
2024-05-09T00:37:13.142Z,102197.34
2024-05-09T00:39:19.048Z,102197.34
2024-05-09T00:41:25.016Z,102203.50
2024-05-09T00:43:33.024Z,102197.34
2024-05-09T00:45:41.519Z,102194.59
2024-05-09T00:47:50.759Z,102204.38
2024-05-09T00:49:57.602Z,102206.09
2024-05-09T00:52:03.524Z,102198.09
2024-05-09T00:54:10.700Z,102195.34
2024-05-09T00:56:17.014Z,102194.50
2024-05-09T00:58:26.547Z,102193.53
2024-05-09T01:00:39.027Z,102193.53
2024-05-09T01:02:49.578Z,102195.25
2024-05-09T01:04:55.846Z,102198.69
2024-05-09T01:07:01.828Z,102191.63
2024-05-09T01:09:08.045Z,102200.50
2024-05-09T01:11:14.288Z,102192.50
2024-05-09T01:13:20.162Z,102191.63
2024-05-09T01:15:25.999Z,102192.50
2024-05-09T01:17:32.928Z,102196.03
2024-05-09T01:19:41.833Z,102189.91
2024-05-09T01:21:47.904Z,102199.63
2024-05-09T01:23:56.368Z,102204.22
2024-05-09T01:26:02.293Z,102201.69
2024-05-09T01:28:08.954Z,102208.00
2024-05-09T01:30:20.798Z,102205.34
2024-05-09T01:32:27.472Z,102208.84
2024-05-09T01:34:33.530Z,102207.13
2024-05-09T01:36:39.439Z,102206.28
2024-05-09T01:38:45.596Z,102194.75
2024-05-09T01:40:54.296Z,102199.22
2024-05-09T01:43:00.273Z,102193.97
2024-05-09T01:45:06.206Z,102195.84
2024-05-09T01:47:12.521Z,102198.63
2024-05-09T01:49:15.849Z,102200.44
2024-05-09T01:51:21.869Z,102192.44
2024-05-09T01:53:27.735Z,102188.03
2024-05-09T01:55:33.802Z,102197.75
2024-05-09T01:57:42.343Z,102195.00
2024-05-09T01:59:49.208Z,102194.16
2024-05-09T02:01:57.559Z,102192.34
2024-05-09T02:04:04.272Z,102191.41
2024-05-09T02:06:10.712Z,102191.41
2024-05-09T02:08:18.947Z,102183.50
2024-05-09T02:10:31.768Z,102196.13
2024-05-09T02:12:39.864Z,102184.72
2024-05-09T02:14:48.651Z,102180.50
2024-05-09T02:16:54.646Z,102184.28
2024-05-09T02:19:00.721Z,102182.75
2024-05-09T02:21:06.917Z,102176.63
2024-05-09T02:23:14.111Z,102177.56
2024-05-09T02:25:20.186Z,102167.09
2024-05-09T02:27:26.155Z,102172.59
2024-05-09T02:29:32.296Z,102174.47
2024-05-09T02:31:41.122Z,102170.19
2024-05-09T02:33:47.481Z,102174.66
2024-05-09T02:35:50.891Z,102174.75
2024-05-09T02:37:56.848Z,102171.22
2024-05-09T02:40:00.201Z,102171.38
2024-05-09T02:42:06.140Z,102167.09
2024-05-09T02:44:09.388Z,102162.72
2024-05-09T02:46:15.792Z,102160.22
2024-05-09T02:48:21.864Z,102165.59
2024-05-09T02:50:34.491Z,102171.19
2024-05-09T02:52:42.000Z,102167.84
2024-05-09T02:54:47.906Z,102173.25
2024-05-09T02:56:51.314Z,102180.38
2024-05-09T02:58:57.210Z,102183.16
2024-05-09T03:01:00.514Z,102174.28
2024-05-09T03:03:06.760Z,102180.53
2024-05-09T03:05:13.056Z,102179.78
2024-05-09T03:07:20.250Z,102173.59
2024-05-09T03:09:25.048Z,102181.66
2024-05-09T03:11:31.140Z,102182.63
2024-05-09T03:13:34.365Z,102181.72
2024-05-09T03:15:40.386Z,102186.13
2024-05-09T03:17:43.863Z,102191.53
2024-05-09T03:19:49.728Z,102194.19
2024-05-09T03:21:55.826Z,102188.88
2024-05-09T03:24:01.521Z,102187.94
2024-05-09T03:26:04.979Z,102189.63
2024-05-09T03:28:11.070Z,102191.44
2024-05-09T03:30:26.029Z,102188.88
2024-05-09T03:32:40.563Z,102183.72
2024-05-09T03:34:43.952Z,102184.66
2024-05-09T03:36:49.869Z,102185.59
2024-05-09T03:38:55.868Z,102183.72
2024-05-09T03:41:01.886Z,102181.06
2024-05-09T03:43:05.434Z,102177.53
2024-05-09T03:45:11.951Z,102178.41
2024-05-09T03:47:15.219Z,102175.66
2024-05-09T03:49:22.735Z,102175.66
2024-05-09T03:51:26.119Z,102165.00
2024-05-09T03:53:32.254Z,102170.41
2024-05-09T03:55:40.383Z,102170.41
2024-05-09T03:57:46.301Z,102174.09
2024-05-09T03:59:49.732Z,102171.53
2024-05-09T04:01:55.680Z,102175.03
2024-05-09T04:03:58.951Z,102173.41
2024-05-09T04:06:05.050Z,102168.06
2024-05-09T04:08:09.163Z,102169.00
2024-05-09T04:10:24.003Z,102170.13
2024-05-09T04:12:36.736Z,102165.81
2024-05-09T04:14:43.187Z,102172.09
2024-05-09T04:16:46.543Z,102172.19
2024-05-09T04:18:52.512Z,102173.22
2024-05-09T04:20:56.914Z,102168.03
2024-05-09T04:23:02.942Z,102169.84
2024-05-09T04:25:07.078Z,102170.78
2024-05-09T04:27:13.236Z,102173.53
2024-05-09T04:29:19.194Z,102170.88
2024-05-09T04:31:25.142Z,102171.81
2024-05-09T04:33:28.542Z,102167.34
2024-05-09T04:35:34.562Z,102170.97
2024-05-09T04:37:37.925Z,102168.38
2024-05-09T04:39:43.886Z,102167.50
2024-05-09T04:41:47.290Z,102168.47
2024-05-09T04:43:53.773Z,102172.06
2024-05-09T04:45:59.801Z,102176.44
2024-05-09T04:48:05.918Z,102167.50
2024-05-09T04:50:11.845Z,102167.34
2024-05-09T04:52:21.052Z,102162.03
2024-05-09T04:54:33.681Z,102167.19
2024-05-09T04:56:42.757Z,102165.22
2024-05-09T04:58:46.223Z,102166.00
2024-05-09T05:00:52.270Z,102169.34
2024-05-09T05:02:58.650Z,102170.91
2024-05-09T05:05:04.561Z,102167.31
2024-05-09T05:07:07.930Z,102160.00
2024-05-09T05:09:14.133Z,102158.03
2024-05-09T05:11:17.485Z,102158.66
2024-05-09T05:13:24.573Z,102153.06
2024-05-09T05:15:28.159Z,102154.59
2024-05-09T05:17:34.503Z,102151.69
2024-05-09T05:19:41.017Z,102158.72
2024-05-09T05:21:47.136Z,102156.94
2024-05-09T05:23:51.457Z,102153.31
2024-05-09T05:25:57.478Z,102161.09
2024-05-09T05:28:00.742Z,102160.72
2024-05-09T05:30:11.887Z,102165.72
2024-05-09T05:32:18.374Z,102165.56
2024-05-09T05:34:24.500Z,102163.41
2024-05-09T05:36:30.376Z,102155.75
2024-05-09T05:38:36.509Z,102164.06
2024-05-09T05:40:40.850Z,102166.28
2024-05-09T05:42:44.451Z,102166.69
2024-05-09T05:44:50.487Z,102154.63
2024-05-09T05:46:53.740Z,102168.09
2024-05-09T05:48:59.727Z,102160.03
2024-05-09T05:51:04.619Z,102163.59
2024-05-09T05:53:14.052Z,102171.81
2024-05-09T05:55:17.281Z,102167.28
2024-05-09T05:57:23.450Z,102168.06
2024-05-09T05:59:29.542Z,102167.28
2024-05-09T06:01:35.849Z,102164.78
2024-05-09T06:03:39.669Z,102169.22
2024-05-09T06:05:47.080Z,102166.94
2024-05-09T06:07:50.741Z,102165.13
2024-05-09T06:09:59.654Z,102168.34
2024-05-09T06:12:03.144Z,102174.16
2024-05-09T06:14:09.322Z,102179.09
2024-05-09T06:16:12.586Z,102177.75
2024-05-09T06:18:18.853Z,102177.63
2024-05-09T06:20:31.568Z,102183.84
2024-05-09T06:22:41.999Z,102188.41
2024-05-09T06:24:45.482Z,102186.47
2024-05-09T06:26:54.045Z,102188.66
2024-05-09T06:28:58.058Z,102180.13
2024-05-09T06:31:05.385Z,102177.69
2024-05-09T06:33:11.753Z,102182.72
2024-05-09T06:35:19.961Z,102191.06
2024-05-09T06:37:23.301Z,102183.81
2024-05-09T06:39:29.398Z,102178.03
2024-05-09T06:41:32.742Z,102177.78
2024-05-09T06:43:41.816Z,102179.31
2024-05-09T06:45:47.371Z,102180.75
2024-05-09T06:47:54.610Z,102182.22
2024-05-09T06:49:57.979Z,102182.66
2024-05-09T06:52:03.947Z,102181.19
2024-05-09T06:54:08.713Z,102178.53
2024-05-09T06:56:14.776Z,102188.03
2024-05-09T06:58:18.152Z,102179.22
2024-05-09T07:00:35.079Z,102185.88
2024-05-09T07:02:43.766Z,102187.84
2024-05-09T07:04:52.867Z,102184.78
2024-05-09T07:06:56.388Z,102180.22
2024-05-09T07:09:02.271Z,102173.59
2024-05-09T07:11:05.972Z,102166.91
2024-05-09T07:13:13.239Z,102164.47
2024-05-09T07:15:17.313Z,102166.31
2024-05-09T07:17:23.619Z,102161.63
2024-05-09T07:19:29.871Z,102160.00
2024-05-09T07:21:33.074Z,102157.19
2024-05-09T07:23:39.321Z,102172.63
2024-05-09T07:25:43.411Z,102170.66
2024-05-09T07:27:49.776Z,102165.34
2024-05-09T07:29:53.319Z,102171.22
2024-05-09T07:31:59.298Z,102161.56
2024-05-09T07:34:05.342Z,102171.72
2024-05-09T07:36:11.920Z,102169.03
2024-05-09T07:38:15.378Z,102171.13
2024-05-09T07:40:31.693Z,102165.53
2024-05-09T07:42:38.884Z,102167.13
2024-05-09T07:44:44.951Z,102166.94
2024-05-09T07:47:48.682Z,102173.03
2024-05-09T07:50:56.059Z,102173.03
2024-05-09T07:53:53.269Z,102169.47
2024-05-09T07:55:59.253Z,102163.31
2024-05-09T07:58:05.544Z,102161.91
2024-05-09T08:00:14.296Z,102159.94
2024-05-09T08:02:20.740Z,102166.09
2024-05-09T08:04:26.950Z,102163.50
2024-05-09T08:06:33.757Z,102164.63
2024-05-09T08:08:37.066Z,102162.88
2024-05-09T08:10:40.333Z,102162.25
2024-05-09T08:12:46.220Z,102169.13
2024-05-09T08:14:50.255Z,102169.69
2024-05-09T08:16:56.384Z,102173.69
2024-05-09T08:18:59.980Z,102171.88
2024-05-09T08:21:09.352Z,102171.59
2024-05-09T08:23:13.851Z,102179.06
2024-05-09T08:25:20.721Z,102169.44
2024-05-09T08:27:26.513Z,102165.56
2024-05-09T08:29:32.560Z,102168.47
2024-05-09T08:31:38.830Z,102157.13
2024-05-09T08:33:48.358Z,102159.03
2024-05-09T08:35:51.890Z,102162.84
2024-05-09T08:38:00.476Z,102167.13
2024-05-09T08:40:04.156Z,102155.59
2024-05-09T08:42:11.809Z,102160.09
2024-05-09T08:44:14.896Z,102162.44
2024-05-09T08:46:21.485Z,102160.88
2024-05-09T08:48:25.304Z,102155.81
2024-05-09T08:50:38.020Z,102151.41
2024-05-09T08:52:43.195Z,102160.00
2024-05-09T08:54:52.563Z,102150.25
2024-05-09T08:56:56.083Z,102146.41
2024-05-09T08:59:05.449Z,102152.50
2024-05-09T09:01:09.162Z,102147.94
2024-05-09T09:03:19.211Z,102156.66
2024-05-09T09:05:26.823Z,102156.22
2024-05-09T09:07:35.098Z,102159.56
2024-05-09T09:09:43.731Z,102160.53
2024-05-09T09:11:53.071Z,102159.59
2024-05-09T09:13:56.520Z,102164.72
2024-05-09T09:16:03.260Z,102156.66
2024-05-09T09:18:09.539Z,102168.47
2024-05-09T09:20:23.282Z,102173.72
2024-05-09T09:22:34.716Z,102163.00
2024-05-09T09:24:40.693Z,102163.31
2024-05-09T09:26:46.081Z,102163.53
2024-05-09T09:28:55.290Z,102156.75
2024-05-09T09:31:03.460Z,102160.81
2024-05-09T09:33:10.637Z,102155.97
2024-05-09T09:35:15.187Z,102152.97
2024-05-09T09:37:26.782Z,102147.78
2024-05-09T09:39:32.672Z,102144.03
2024-05-09T09:41:40.663Z,102146.19
2024-05-09T09:43:44.136Z,102136.19
2024-05-09T09:45:55.656Z,102139.66
2024-05-09T09:48:01.101Z,102135.75
2024-05-09T09:50:14.223Z,102144.59
2024-05-09T09:52:20.479Z,102142.41
2024-05-09T09:54:27.417Z,102147.38
2024-05-09T09:56:31.789Z,102144.72
2024-05-09T09:58:39.794Z,102138.78
2024-05-09T10:00:43.824Z,102142.16
2024-05-09T10:02:53.230Z,102138.16
2024-05-09T10:04:57.324Z,102149.63
2024-05-09T10:07:07.000Z,102144.44
2024-05-09T10:09:12.157Z,102150.63
2024-05-09T10:11:23.337Z,102148.81
2024-05-09T10:13:34.977Z,102142.88
2024-05-09T10:15:48.607Z,102150.31
2024-05-09T10:17:54.721Z,102146.53
2024-05-09T10:20:14.934Z,102146.75
2024-05-09T10:22:28.940Z,102149.09
2024-05-09T10:24:50.605Z,102152.47
2024-05-09T10:26:54.252Z,102153.50
2024-05-09T10:29:03.533Z,102157.94
2024-05-09T10:31:11.411Z,102159.94
2024-05-09T10:33:23.675Z,102158.53
2024-05-09T10:35:26.982Z,102152.41
2024-05-09T10:37:34.753Z,102159.88
2024-05-09T10:39:37.980Z,102157.44
2024-05-09T10:41:44.263Z,102171.53
2024-05-09T10:43:51.644Z,102168.59
2024-05-09T10:45:57.848Z,102163.44
2024-05-09T10:48:01.791Z,102172.50
2024-05-09T10:50:18.544Z,102162.56
2024-05-09T10:52:29.046Z,102161.75
2024-05-09T10:54:39.833Z,102156.09
2024-05-09T10:56:43.070Z,102165.94
2024-05-09T10:58:49.093Z,102158.59
2024-05-09T11:00:53.072Z,102157.06
2024-05-09T11:03:00.111Z,102152.94
2024-05-09T11:05:03.565Z,102156.78
2024-05-09T11:07:15.319Z,102155.19
2024-05-09T11:09:18.894Z,102148.88
2024-05-09T11:11:24.990Z,102156.28
2024-05-09T11:13:28.879Z,102150.59
2024-05-09T11:15:42.559Z,102157.09
2024-05-09T11:17:45.816Z,102159.69
2024-05-09T11:19:54.440Z,102154.00
2024-05-09T11:21:58.071Z,102147.38
2024-05-09T11:24:10.983Z,102146.19
2024-05-09T11:26:19.534Z,102139.22
2024-05-09T11:28:23.425Z,102139.78
2024-05-09T11:30:32.089Z,102144.09
2024-05-09T11:32:38.775Z,102150.03
2024-05-09T11:34:46.700Z,102139.63
2024-05-09T11:36:49.912Z,102140.00
2024-05-09T11:38:55.881Z,102146.41
2024-05-09T11:41:02.748Z,102141.91
2024-05-09T11:43:09.979Z,102134.56
2024-05-09T11:45:13.790Z,102140.47
2024-05-09T11:47:22.007Z,102144.66
2024-05-09T11:49:26.902Z,102137.69
2024-05-09T11:51:33.175Z,102136.22
2024-05-09T11:53:36.476Z,102130.91
2024-05-09T11:55:42.474Z,102129.38
2024-05-09T11:57:49.599Z,102134.34
2024-05-09T11:59:55.648Z,102121.59
2024-05-09T12:01:58.868Z,102126.22
2024-05-09T12:04:05.473Z,102116.00
2024-05-09T12:06:09.052Z,102113.09
2024-05-09T12:08:15.686Z,102110.06
2024-05-09T12:10:22.464Z,102118.63
2024-05-09T12:12:32.951Z,102112.47
2024-05-09T12:14:40.714Z,102104.84
2024-05-09T12:16:46.718Z,102106.38
2024-05-09T12:18:50.359Z,102100.97
2024-05-09T12:20:56.404Z,102100.56
2024-05-09T12:22:59.739Z,102103.34
2024-05-09T12:25:06.505Z,102101.41
2024-05-09T12:27:09.720Z,102106.44
2024-05-09T12:29:15.907Z,102099.13
2024-05-09T12:31:21.921Z,102101.25
2024-05-09T12:33:28.235Z,102106.38
2024-05-09T12:35:31.791Z,102102.09
2024-05-09T12:37:37.920Z,102104.47
2024-05-09T12:39:41.287Z,102097.53
2024-05-09T12:41:47.150Z,102101.25
2024-05-09T12:43:50.351Z,102094.19
2024-05-09T12:45:56.393Z,102092.66
2024-05-09T12:48:02.467Z,102094.81
2024-05-09T12:50:18.753Z,102081.53
2024-05-09T12:52:28.808Z,102093.81
2024-05-09T12:54:35.040Z,102084.56
2024-05-09T12:56:38.350Z,102087.25
2024-05-09T12:58:44.386Z,102084.72
2024-05-09T13:00:48.427Z,102080.22
2024-05-09T13:02:54.436Z,102075.47
2024-05-09T13:05:00.458Z,102072.53
2024-05-09T13:07:08.056Z,102072.44
2024-05-09T13:09:12.206Z,102074.16
2024-05-09T13:11:18.365Z,102064.91
2024-05-09T13:13:21.590Z,102076.28
2024-05-09T13:15:27.551Z,102055.16
2024-05-09T13:17:30.975Z,102058.72
2024-05-09T13:19:36.960Z,102055.91
2024-05-09T13:21:42.802Z,102048.38
2024-05-09T13:23:48.688Z,102047.41
2024-05-09T13:25:52.066Z,102048.22
2024-05-09T13:27:58.166Z,102048.00
2024-05-09T13:30:01.445Z,102048.50
2024-05-09T13:32:07.741Z,102047.88
2024-05-09T13:34:11.222Z,102043.25
2024-05-09T13:36:17.341Z,102042.63
2024-05-09T13:38:23.768Z,102044.34
2024-05-09T13:40:34.206Z,102036.75
2024-05-09T13:42:40.062Z,102037.25
2024-05-09T13:44:48.592Z,102036.50
2024-05-09T13:46:55.318Z,102036.38
2024-05-09T13:49:02.065Z,102038.81
2024-05-09T13:51:09.514Z,102040.03
2024-05-09T13:53:19.076Z,102035.31
2024-05-09T13:55:25.640Z,102042.25
2024-05-09T13:57:32.597Z,102033.00
2024-05-09T13:59:36.881Z,102035.19
2024-05-09T14:01:43.405Z,102029.72
2024-05-09T14:03:46.929Z,102018.34
2024-05-09T14:05:53.337Z,102023.22
2024-05-09T14:07:57.207Z,102018.34
2024-05-09T14:10:04.105Z,102012.72
2024-05-09T14:12:12.600Z,102015.41
2024-05-09T14:14:20.133Z,102011.38
2024-05-09T14:16:23.696Z,102003.34
2024-05-09T14:18:31.109Z,102006.47
2024-05-09T14:20:34.555Z,102002.19
2024-05-09T14:22:42.164Z,102002.69
2024-05-09T14:24:45.552Z,101995.34
2024-05-09T14:26:56.170Z,101998.53
2024-05-09T14:29:06.221Z,102000.97
2024-05-09T14:31:13.363Z,101996.44
2024-05-09T14:33:23.834Z,102002.41
2024-05-09T14:35:30.057Z,101997.66
2024-05-09T14:37:35.519Z,101997.66
2024-05-09T14:39:42.560Z,101995.97
2024-05-09T14:41:46.913Z,101997.06
2024-05-09T14:43:53.110Z,101994.00
2024-05-09T14:45:59.634Z,101990.09
2024-05-09T14:48:06.261Z,101986.16
2024-05-09T14:50:16.785Z,101982.38
2024-05-09T14:52:29.338Z,101980.03
2024-05-09T14:54:32.538Z,101973.28
2024-05-09T14:56:38.789Z,101977.88
2024-05-09T14:58:42.663Z,101978.09
2024-05-09T15:00:51.742Z,101972.84
2024-05-09T15:02:58.726Z,101970.72
2024-05-09T15:05:04.732Z,101961.50
2024-05-09T15:07:10.355Z,101966.50
2024-05-09T15:09:18.603Z,101960.53
2024-05-09T15:11:21.803Z,101964.03
2024-05-09T15:13:32.898Z,101963.84
2024-05-09T15:15:37.501Z,101964.47
2024-05-09T15:17:44.109Z,101964.47
2024-05-09T15:19:57.729Z,101970.69
2024-05-09T15:22:04.503Z,101971.41
2024-05-09T15:24:08.052Z,101967.28
2024-05-09T15:26:14.525Z,101963.41
2024-05-09T15:28:18.527Z,101964.13
2024-05-09T15:30:30.746Z,101970.03
2024-05-09T15:32:36.537Z,101962.31
2024-05-09T15:34:42.679Z,101960.88
2024-05-09T15:36:51.647Z,101959.53
2024-05-09T15:39:01.125Z,101950.75
2024-05-09T15:41:05.089Z,101956.47
2024-05-09T15:43:12.051Z,101954.41
2024-05-09T15:45:15.804Z,101952.94
2024-05-09T15:47:21.936Z,101951.97
2024-05-09T15:49:25.415Z,101955.50
2024-05-09T15:51:31.668Z,101951.59
2024-05-09T15:53:37.817Z,101962.72
2024-05-09T15:55:43.808Z,101958.31
2024-05-09T15:57:47.258Z,101957.34
2024-05-09T15:59:53.774Z,101947.84
2024-05-09T16:01:57.399Z,101949.66
2024-05-09T16:04:04.386Z,101945.75
2024-05-09T16:06:07.933Z,101954.28
2024-05-09T16:08:15.333Z,101951.72
2024-05-09T16:10:25.966Z,101945.88
2024-05-09T16:12:37.554Z,101950.53
2024-05-09T16:14:40.804Z,101951.25
2024-05-09T16:16:47.101Z,101946.38
2024-05-09T16:18:50.471Z,101949.53
2024-05-09T16:21:00.455Z,101947.56
2024-05-09T16:23:03.835Z,101947.34
2024-05-09T16:25:10.879Z,101946.84
2024-05-09T16:27:17.149Z,101940.97
2024-05-09T16:29:23.551Z,101939.13
2024-05-09T16:31:27.079Z,101940.97
2024-05-09T16:33:33.767Z,101945.13
2024-05-09T16:35:37.797Z,101942.66
2024-05-09T16:37:43.972Z,101953.16
2024-05-09T16:39:48.513Z,101944.03
2024-05-09T16:41:54.461Z,101941.75
2024-05-09T16:44:02.555Z,101939.03
2024-05-09T16:46:09.295Z,101934.44
2024-05-09T16:48:13.444Z,101931.88
2024-05-09T16:50:26.400Z,101934.06
2024-05-09T16:52:34.471Z,101928.94
2024-05-09T16:54:40.643Z,101920.16
2024-05-09T16:56:45.731Z,101927.50
2024-05-09T16:58:52.232Z,101925.03
2024-05-09T17:00:58.657Z,101922.22
2024-05-09T17:03:04.706Z,101916.38
2024-05-09T17:05:08.764Z,101918.56
2024-05-09T17:07:16.009Z,101922.44
2024-05-09T17:09:20.204Z,101911.97
2024-05-09T17:11:26.350Z,101915.50
2024-05-09T17:13:29.889Z,101910.72
2024-05-09T17:15:37.129Z,101912.06
2024-05-09T17:17:46.881Z,101910.97
2024-05-09T17:19:53.497Z,101914.28
2024-05-09T17:21:59.557Z,101918.53
2024-05-09T17:24:02.952Z,101914.78
2024-05-09T17:26:09.361Z,101915.00
2024-05-09T17:28:12.960Z,101916.09
2024-05-09T17:30:28.855Z,101917.31
2024-05-09T17:32:47.217Z,101912.56
2024-05-09T17:34:54.542Z,101915.38
2024-05-09T17:36:58.730Z,101918.63
2024-05-09T17:39:06.144Z,101918.16
2024-05-09T17:41:09.810Z,101909.88
2024-05-09T17:43:16.212Z,101922.19
2024-05-09T17:45:21.010Z,101916.22
2024-05-09T17:47:27.147Z,101915.63
2024-05-09T17:49:33.572Z,101918.28
2024-05-09T17:51:39.777Z,101914.25
2024-05-09T17:53:43.366Z,101916.22
2024-05-09T17:55:49.358Z,101915.59
2024-05-09T17:57:54.215Z,101912.66
2024-05-09T18:00:00.592Z,101911.28
2024-05-09T18:02:04.890Z,101918.03
2024-05-09T18:04:11.599Z,101912.03
2024-05-09T18:06:17.845Z,101918.81
2024-05-09T18:08:23.678Z,101918.81
2024-05-09T18:10:34.827Z,101925.66
2024-05-09T18:12:43.752Z,101921.78
2024-05-09T18:14:47.146Z,101924.72
2024-05-09T18:16:53.527Z,101922.56
2024-05-09T18:19:01.661Z,101918.66
2024-05-09T18:21:09.603Z,101926.69
2024-05-09T18:23:17.624Z,101923.94
2024-05-09T18:25:24.927Z,101921.19
2024-05-09T18:27:29.488Z,101923.34
2024-05-09T18:29:36.512Z,101926.38
2024-05-09T18:31:41.053Z,101920.50
2024-05-09T18:33:47.933Z,101918.31
2024-05-09T18:35:52.807Z,101923.44
2024-05-09T18:37:59.107Z,101918.38
2024-05-09T18:40:11.732Z,101912.09
2024-05-09T18:42:18.019Z,101916.72
2024-05-09T18:44:22.127Z,101903.88
2024-05-09T18:46:28.291Z,101914.16
2024-05-09T18:48:32.404Z,101915.00
2024-05-09T18:50:40.953Z,101914.16
2024-05-09T18:52:48.407Z,101915.59
2024-05-09T18:54:55.506Z,101921.69
2024-05-09T18:57:01.589Z,101914.97
2024-05-09T18:59:07.870Z,101923.59
2024-05-09T19:01:12.062Z,101930.00
2024-05-09T19:03:18.863Z,101924.00
2024-05-09T19:05:22.814Z,101924.66
2024-05-09T19:07:29.524Z,101927.22
2024-05-09T19:09:33.561Z,101924.28
2024-05-09T19:11:40.529Z,101924.91
2024-05-09T19:13:48.616Z,101927.47
2024-05-09T19:15:54.653Z,101929.41
2024-05-09T19:17:58.418Z,101928.75
2024-05-09T19:20:06.067Z,101928.19
2024-05-09T19:22:09.778Z,101931.53
2024-05-09T19:24:17.757Z,101925.75
2024-05-09T19:26:22.589Z,101924.44
2024-05-09T19:28:28.235Z,101922.94
2024-05-09T19:30:40.223Z,101924.00
2024-05-09T19:32:48.461Z,101931.28
2024-05-09T19:34:51.975Z,101922.59
2024-05-09T19:37:00.984Z,101919.31
2024-05-09T19:39:05.598Z,101919.31
2024-05-09T19:41:12.280Z,101916.94
2024-05-09T19:43:15.939Z,101919.72
2024-05-09T19:45:22.405Z,101919.31
2024-05-09T19:47:28.889Z,101919.75
2024-05-09T19:49:35.566Z,101921.97
2024-05-09T19:51:39.034Z,101913.75
2024-05-09T19:53:46.476Z,101923.19
2024-05-09T19:55:51.046Z,101927.34
2024-05-09T19:57:58.916Z,101922.72
2024-05-09T20:00:05.885Z,101926.25
2024-05-09T20:02:15.568Z,101922.72
2024-05-09T20:04:21.851Z,101922.63
2024-05-09T20:06:29.970Z,101921.78
2024-05-09T20:08:36.630Z,101920.16
2024-05-09T20:10:44.049Z,101916.66
2024-05-09T20:12:47.935Z,101924.66
2024-05-09T20:14:54.362Z,101923.56
2024-05-09T20:16:58.536Z,101921.00
2024-05-09T20:19:05.652Z,101917.59
2024-05-09T20:21:12.876Z,101922.31
2024-05-09T20:23:19.933Z,101919.75
2024-05-09T20:25:25.389Z,101910.97
2024-05-09T20:27:31.799Z,101926.81
2024-05-09T20:29:36.088Z,101925.09
2024-05-09T20:31:42.313Z,101924.44
2024-05-09T20:33:47.054Z,101922.84
2024-05-09T20:35:56.756Z,101922.09
2024-05-09T20:38:05.515Z,101921.31
2024-05-09T20:40:21.208Z,101915.97
2024-05-09T20:42:29.795Z,101916.75
2024-05-09T20:44:36.823Z,101928.28
2024-05-09T20:46:40.687Z,101924.97
2024-05-09T20:48:47.966Z,101918.66
2024-05-09T20:50:52.190Z,101915.97
2024-05-09T20:52:59.347Z,101918.66
2024-05-09T20:55:07.041Z,101921.31
2024-05-09T20:57:14.317Z,101918.66
2024-05-09T20:59:19.454Z,101918.66
2024-05-09T21:01:26.318Z,101910.13
2024-05-09T21:03:31.503Z,101917.38
2024-05-09T21:05:39.198Z,101914.16
2024-05-09T21:07:43.917Z,101913.53
2024-05-09T21:09:51.404Z,101919.94
2024-05-09T21:11:58.752Z,101911.16
2024-05-09T21:14:06.267Z,101920.03
2024-05-09T21:16:11.625Z,101914.81
2024-05-09T21:18:18.310Z,101903.34
2024-05-09T21:20:28.607Z,101914.97
2024-05-09T21:22:40.304Z,101917.03
2024-05-09T21:24:44.858Z,101914.47
2024-05-09T21:26:52.121Z,101906.63
2024-05-09T21:29:00.030Z,101911.13
2024-05-09T21:31:07.432Z,101906.63
2024-05-09T21:33:13.472Z,101910.28
2024-05-09T21:35:21.520Z,101915.63
2024-05-09T21:37:25.677Z,101906.84
2024-05-09T21:39:33.613Z,101909.53
2024-05-09T21:41:37.888Z,101907.69
2024-05-09T21:43:44.744Z,101904.94
2024-05-09T21:45:51.868Z,101907.63
2024-05-09T21:47:59.249Z,101900.44
2024-05-09T21:50:12.555Z,101897.78
2024-05-09T21:52:25.019Z,101907.69
2024-05-09T21:54:33.493Z,101907.81
2024-05-09T21:56:40.762Z,101911.47
2024-05-09T21:58:44.653Z,101912.41
2024-05-09T22:00:54.489Z,101911.47
2024-05-09T22:02:58.773Z,101914.31
2024-05-09T22:05:10.452Z,101919.88
2024-05-09T22:07:15.448Z,101915.38
2024-05-09T22:09:19.588Z,101916.47
2024-05-09T22:11:26.332Z,101912.91
2024-05-09T22:13:30.532Z,101913.78
2024-05-09T22:15:43.385Z,101896.88
2024-05-09T22:17:50.773Z,101908.44
2024-05-09T22:20:00.550Z,101906.63
2024-05-09T22:22:05.262Z,101902.34
2024-05-09T22:24:13.928Z,101907.69
2024-05-09T22:26:17.928Z,101909.69
2024-05-09T22:28:25.793Z,101911.72
2024-05-09T22:30:36.475Z,101912.88
2024-05-09T22:32:45.755Z,101898.78
2024-05-09T22:34:52.520Z,101906.78
2024-05-09T22:37:00.106Z,101898.66
2024-05-09T22:39:07.391Z,101896.75
2024-05-09T22:41:13.942Z,101890.56
2024-05-09T22:43:21.079Z,101900.69
2024-05-09T22:45:29.488Z,101904.19
2024-05-09T22:47:33.815Z,101900.94
2024-05-09T22:49:41.141Z,101902.84
2024-05-09T22:51:47.838Z,101902.66
2024-05-09T22:53:54.466Z,101899.03
2024-05-09T22:55:58.257Z,101896.56
2024-05-09T22:58:04.732Z,101895.03
2024-05-09T23:00:15.459Z,101899.41
2024-05-09T23:02:22.575Z,101898.00
2024-05-09T23:04:26.307Z,101907.44
2024-05-09T23:06:33.547Z,101903.16
2024-05-09T23:08:40.818Z,101901.25
2024-05-09T23:10:47.648Z,101901.94
2024-05-09T23:12:51.815Z,101908.78
2024-05-09T23:14:58.189Z,101906.00
2024-05-09T23:17:03.063Z,101904.94
2024-05-09T23:19:10.142Z,101910.28
2024-05-09T23:21:14.145Z,101909.31
2024-05-09T23:23:20.809Z,101906.66
2024-05-09T23:25:27.481Z,101910.09
2024-05-09T23:27:34.686Z,101909.91
2024-05-09T23:29:38.671Z,101905.44
2024-05-09T23:31:46.097Z,101904.56
2024-05-09T23:33:52.005Z,101903.91
2024-05-09T23:35:58.654Z,101904.06
2024-05-09T23:38:02.379Z,101906.66
2024-05-09T23:40:18.115Z,101904.84
2024-05-09T23:42:26.037Z,101899.78
2024-05-09T23:44:33.721Z,101901.94
2024-05-09T23:46:38.550Z,101906.91
2024-05-09T23:48:45.592Z,101908.06
2024-05-09T23:50:49.663Z,101900.13
2024-05-09T23:52:55.996Z,101909.84
2024-05-09T23:54:59.944Z,101908.81
2024-05-09T23:57:06.701Z,101909.38
2024-05-09T23:59:14.000Z,101904.03
